• Join FlightAware (Why Join?)
  • Login
  • US Flag 
06:48AM EDT


 

Airport Tracker/Info


-or-


 

Live Flight TrackerFlight Track Log ✈ UAL1129 ✈ 05-Jul-2013 ✈ KSEA - KIAH

Flight Track Log - Related Links

Times and Time Zones

All times are in EDT time to prevent confusion due to time zone crossing. See the UAL1129 flight status page for this flight to view local times or setup timezone preferences in your user account.

Time Position Orientation Groundspeed Altitude Reporting Facility
EDT Latitude Longitude Course Direction KTS MPH feet Rate Location/Type
03:30AM 47.4340 -122.3080 180° South 168 193 900  Level FlightAware ADS-B
03:30AM 47.4284 -122.3080 180° South 171 197 1,100 1,680 Climbing FlightAware ADS-B
03:30AM 47.4175 -122.3090 184° South 184 212 1,500 1,620 Climbing FlightAware ADS-B
03:30AM 47.4098 -122.3090 180° South 198 228 1,700 1,260 Climbing FlightAware ADS-B
03:30AM 47.3949 -122.3090 180° South 220 253 2,000 1,680 Climbing FlightAware ADS-B
03:31AM 47.3819 -122.3090 180° South 230 265 2,500 3,000 Climbing FlightAware ADS-B
03:31AM 47.3659 -122.3090 180° South 231 266 3,400 3,180 Climbing FlightAware ADS-B
03:31AM 47.3492 -122.3090 180° South 241 277 4,100 2,400 Climbing FlightAware ADS-B
03:31AM 47.3322 -122.3100 182° South 259 298 4,600 2,040 Climbing FlightAware ADS-B
03:31AM 47.3185 -122.3090 177° South 270 311 5,000 2,400 Climbing FlightAware ADS-B
03:32AM 47.3125 -122.3090 180° South 273 314 5,200 3,720 Climbing FlightAware ADS-B
03:32AM 47.3075 -122.3080 172° South 273 314 5,500 3,720 Climbing FlightAware ADS-B
03:32AM 47.3026 -122.3070 172° South 274 315 5,700 2,400 Climbing FlightAware ADS-B
03:32AM 47.2960 -122.3050 168° South 276 318 5,900 2,700 Climbing FlightAware ADS-B
03:32AM 47.2898 -122.3020 162° South 278 320 6,200 2,820 Climbing FlightAware ADS-B
03:32AM 47.2746 -122.2960 165° South 284 327 6,700 2,640 Climbing FlightAware ADS-B
03:32AM 47.2582 -122.2880 162° South 292 336 7,300 2,760 Climbing FlightAware ADS-B
03:33AM 47.2376 -122.2780 162° South 299 344 8,000 2,880 Climbing FlightAware ADS-B
03:33AM 47.2218 -122.2700 161° South 302 348 8,600 3,180 Climbing FlightAware ADS-B
03:33AM 47.2012 -122.2600 162° South 304 350 9,500 2,820 Climbing FlightAware ADS-B
03:34AM 47.1601 -122.2400 162° South 317 365 10,800 2,280 Climbing FlightAware ADS-B
03:34AM 47.1163 -122.2200 163° South 341 392 11,800 2,280 Climbing FlightAware ADS-B
03:35AM 47.0700 -122.1980 162° South 354 407 13,100 2,580 Climbing FlightAware ADS-B
03:35AM 47.0218 -122.1760 163° South 362 417 14,400 2,520 Climbing FlightAware ADS-B
03:36AM 46.9727 -122.1530 162° South 370 426 15,700 2,520 Climbing FlightAware ADS-B
03:36AM 46.9235 -122.1300 162° South 373 429 17,000 2,700 Climbing FlightAware ADS-B
03:37AM 46.8736 -122.1070 163° South 375 432 18,400 2,580 Climbing FlightAware ADS-B
03:37AM 46.8237 -122.0830 162° South 381 438 19,600 2,220 Climbing FlightAware ADS-B
03:38AM 46.7722 -122.0590 162° South 388 447 20,700 2,160 Climbing FlightAware ADS-B
03:38AM 46.7261 -122.0380 163° South 392 451 21,700 2,220 Climbing FlightAware ADS-B
03:38AM 46.7173 -122.0330 159° South 395 455 21,900 1,980 Climbing FlightAware ADS-B
03:38AM 46.7109 -122.0290 157° South 398 458 22,000 1,680 Climbing FlightAware ADS-B
03:38AM 46.7050 -122.0230 145° Southeast 402 463 22,100 2,520 Climbing FlightAware ADS-B
03:38AM 46.7000 -122.0180 146° Southeast 404 465 22,300 2,640 Climbing FlightAware ADS-B
03:38AM 46.6917 -122.0080 140° Southeast 409 471 22,500 1,800 Climbing FlightAware ADS-B
03:38AM 46.6864 -122.0000 134° Southeast 412 474 22,600 1,320 Climbing FlightAware ADS-B
03:38AM 46.6806 -121.9890 128° Southeast 415 478 22,700 1,980 Climbing FlightAware ADS-B
03:39AM 46.6762 -121.9790 123° Southeast 419 482 22,900 2,220 Climbing FlightAware ADS-B
03:39AM 46.6725 -121.9700 121° Southeast 422 486 23,000 1,500 Climbing FlightAware ADS-B
03:39AM 46.6666 -121.9500 113° Southeast 426 490 23,200 1,680 Climbing FlightAware ADS-B
03:39AM 46.6437 -121.8680 112° Southeast 434 499 24,100 1,260 Climbing FlightAware ADS-B
03:40AM 46.6199 -121.7860 113° Southeast 450 518 24,500 660 Climbing FlightAware ADS-B
03:40AM 46.5945 -121.6980 113° Southeast 471 542 24,800 780 Climbing FlightAware ADS-B
03:41AM 46.5677 -121.6070 113° Southeast 483 556 25,300 840 Climbing FlightAware ADS-B
03:41AM 46.5400 -121.5110 113° Southeast 496 571 25,700 960 Climbing FlightAware ADS-B
03:42AM 46.5132 -121.4180 113° Southeast 501 577 26,300 1,080 Climbing FlightAware ADS-B
03:42AM 46.4858 -121.3240 113° Southeast 511 588 26,800 1,200 Climbing FlightAware ADS-B
03:43AM 46.4576 -121.2280 113° Southeast 511 588 27,500 1,560 Climbing FlightAware ADS-B
03:43AM 46.4296 -121.1340 113° Southeast 506 582 28,400 1,860 Climbing FlightAware ADS-B
03:44AM 46.4014 -121.0400 113° Southeast 502 578 29,400 1,620 Climbing FlightAware ADS-B
03:44AM 46.3733 -120.9460 113° Southeast 502 578 30,100 1,260 Climbing FlightAware ADS-B
03:45AM 46.3380 -120.8280 113° Southeast 502 578 30,900 1,320 Climbing FlightAware
03:46AM 46.3000 -120.7050 114° Southeast 497 572 31,900 1,380 Climbing FlightAware
03:46AM 46.2630 -120.5830 114° Southeast 496 571 32,800 1,200 Climbing FlightAware
03:47AM 46.2250 -120.4570 114° Southeast 495 570 33,600 1,200 Climbing FlightAware
03:48AM 46.1860 -120.3300 114° Southeast 492 566 34,500 960 Climbing FlightAware
03:48AM 46.1480 -120.2060 114° Southeast 495 570 35,000 780 Climbing FlightAware
03:49AM 46.1060 -120.0710 114° Southeast 495 570 35,700 840 Climbing FlightAware
03:50AM 46.0690 -119.9510 114° Southeast 497 572 36,200 900 Climbing FlightAware
03:50AM 46.0360 -119.8460 114° Southeast 490 564 36,900 600 Climbing FlightAware
03:51AM 45.9980 -119.7250 114° Southeast 495 570 37,000 60 Climbing FlightAware
03:52AM 45.9550 -119.5880 114° Southeast 497 572 37,000  Level FlightAware
03:52AM 45.9240 -119.4900 114° Southeast 497 572 37,000  Level FlightAware
03:53AM 45.8870 -119.3750 115° Southeast 494 568 37,000  Level FlightAware
03:54AM 45.8440 -119.2410 115° Southeast 489 563 37,000  Level FlightAware
03:54AM 45.8050 -119.1190 115° Southeast 490 564 37,000  Level FlightAware
03:55AM 45.7640 -118.9900 114° Southeast 493 567 37,000  Level FlightAware
03:56AM 45.7250 -118.8690 115° Southeast 493 567 37,000  Level FlightAware
03:57AM 45.6830 -118.7410 115° Southeast 496 571 37,000  Level FlightAware
03:57AM 45.6490 -118.6350 115° Southeast 499 574 37,000  Level FlightAware
03:58AM 45.6070 -118.5070 115° Southeast 497 572 37,000  Level FlightAware
03:59AM 45.5680 -118.3890 115° Southeast 493 567 37,000  Level FlightAware
03:59AM 45.5320 -118.2830 116° Southeast 494 568 37,000  Level FlightAware
04:00AM 45.4930 -118.1640 115° Southeast 494 568 37,000  Level FlightAware
04:01AM 45.4520 -118.0440 116° Southeast 491 565 37,000  Level FlightAware
04:01AM 45.4120 -117.9250 116° Southeast 488 562 37,000  Level FlightAware
04:02AM 45.3780 -117.8200 115° Southeast 488 562 37,000  Level FlightAware
04:03AM 45.3290 -117.6780 116° Southeast 491 565 37,000  Level FlightAware
04:03AM 45.2860 -117.5520 116° Southeast 492 566 37,000  Level FlightAware
04:04AM 45.2540 -117.4550 115° Southeast 493 567 37,000  Level FlightAware
04:05AM 45.2240 -117.3660 116° Southeast 493 567 37,000  Level FlightAware
04:05AM 45.1850 -117.2460 115° Southeast 493 567 37,000  Level FlightAware
04:06AM 45.1550 -117.1560 115° Southeast 493 567 37,000  Level FlightAware
04:07AM 45.1160 -117.0370 115° Southeast 493 567 37,000  Level FlightAware
04:07AM 45.0860 -116.9470 115° Southeast 493 567 37,000  Level FlightAware
04:08AM 45.0370 -116.7980 115° Southeast 493 567 37,000  Level FlightAware
04:09AM 45.0070 -116.7060 115° Southeast 493 567 37,000  Level FlightAware
04:10AM 44.9690 -116.5920 115° Southeast 493 567 37,000  Level FlightAware
04:10AM 44.9400 -116.5020 114° Southeast 493 567 37,000  Level FlightAware
04:11AM 44.9060 -116.4000 115° Southeast 493 567 37,000  Level FlightAware
04:12AM 44.8670 -116.2810 115° Southeast 493 567 37,000  Level FlightAware
04:13AM 44.8180 -116.1350 115° Southeast 493 567 37,000  Level FlightAware
04:14AM 44.6444 -115.7347 115° Southeast 497 572 37,000  Level Salt Lake Center
04:15AM 44.5733 -115.5422 117° Southeast 495 570 37,000  Level Salt Lake Center
04:16AM 44.5114 -115.3767 118° Southeast 498 573 37,000  Level Salt Lake Center
04:17AM 44.4503 -115.2117 117° Southeast 498 573 37,000  Level Salt Lake Center
04:18AM 44.3883 -115.0475 118° Southeast 498 573 37,000  Level Salt Lake Center
04:19AM 44.3167 -114.8564 118° Southeast 496 571 37,000  Level Salt Lake Center
04:20AM 44.2547 -114.6939 118° Southeast 496 571 37,000  Level Salt Lake Center
04:26AM 43.8597 -113.8090 118° Southeast 479 551 37,000  Level FlightAware ADS-B
04:26AM 43.8192 -113.7340 127° Southeast 479 551 37,000  Level FlightAware ADS-B
04:27AM 43.7573 -113.6200 127° Southeast 477 549 37,000  Level FlightAware ADS-B
04:28AM 43.6975 -113.5090 127° Southeast 478 550 37,000  Level FlightAware ADS-B
04:29AM 43.6123 -113.3530 127° Southeast 481 554 37,000  Level FlightAware ADS-B
04:30AM 43.5302 -113.2040 127° Southeast 480 552 37,000  Level FlightAware ADS-B
04:31AM 43.4563 -113.0690 127° Southeast 481 554 37,000  Level FlightAware ADS-B
04:33AM 43.2493 -112.6970 127° Southeast 472 543 37,000  Level FlightAware ADS-B
04:34AM 43.2089 -112.6250 128° Southeast 475 547 37,000  Level FlightAware ADS-B
04:34AM 43.1657 -112.5470 127° Southeast 476 548 37,000  Level FlightAware ADS-B
04:36AM 43.0523 -112.3450 127° Southeast 474 545 37,000  Level FlightAware ADS-B
04:36AM 43.0048 -112.2620 128° Southeast 470 541 37,000  Level FlightAware ADS-B
04:37AM 42.9019 -112.0820 128° Southeast 469 540 37,000  Level FlightAware ADS-B
04:38AM 42.8593 -112.0070 128° Southeast 466 536 37,000  Level FlightAware ADS-B
04:39AM 42.8193 -111.9370 128° Southeast 472 543 37,000  Level FlightAware ADS-B
04:39AM 42.7787 -111.8660 128° Southeast 472 543 37,000  Level FlightAware ADS-B
04:40AM 42.6997 -111.7290 128° Southeast 473 544 37,000  Level FlightAware ADS-B
04:41AM 42.6569 -111.6550 128° Southeast 474 545 37,000  Level FlightAware ADS-B
04:41AM 42.6090 -111.5720 128° Southeast 472 543 37,000  Level FlightAware ADS-B
04:42AM 42.5685 -111.5020 128° Southeast 464 534 37,000  Level FlightAware ADS-B
04:42AM 42.5110 -111.4040 128° Southeast 459 528 37,000  Level FlightAware
04:43AM 42.4620 -111.3200 128° Southeast 458 527 37,000  Level FlightAware
04:44AM 42.3910 -111.1980 128° Southeast 457 526 37,000  Level FlightAware
04:45AM 42.3090 -111.0600 129° Southeast 460 529 37,000  Level FlightAware
04:46AM 42.2480 -110.9560 128° Southeast 461 531 37,000  Level FlightAware
04:46AM 42.2050 -110.8820 128° Southeast 461 531 37,000  Level FlightAware
04:47AM 42.1650 -110.8130 128° Southeast 461 531 37,000  Level FlightAware
04:48AM 42.0680 -110.6530 129° Southeast 466 536 37,000  Level FlightAware
04:49AM 42.0280 -110.5830 128° Southeast 466 536 37,000  Level FlightAware
04:49AM 41.9740 -110.4890 128° Southeast 466 536 37,000  Level FlightAware
04:50AM 41.9320 -110.4180 128° Southeast 466 536 37,000  Level FlightAware
04:51AM 41.8790 -110.3260 128° Southeast 466 536 37,000  Level FlightAware
04:51AM 41.8380 -110.2570 129° Southeast 466 536 37,000  Level FlightAware
04:52AM 41.7840 -110.1640 128° Southeast 466 536 37,000  Level FlightAware
04:53AM 41.6610 -109.9820 132° Southeast 471 542 37,000  Level FlightAware
04:54AM 41.6030 -109.8880 130° Southeast 474 545 37,000  Level FlightAware
04:54AM 41.5410 -109.7870 129° Southeast 476 548 37,000  Level FlightAware
04:55AM 41.4830 -109.6930 129° Southeast 478 550 37,000  Level FlightAware
04:56AM 41.4240 -109.5970 129° Southeast 478 550 37,000  Level FlightAware
04:56AM 41.3680 -109.5070 130° Southeast 478 550 37,000  Level FlightAware
04:57AM 41.3080 -109.4110 130° Southeast 477 549 37,000  Level FlightAware
04:58AM 41.2520 -109.3210 130° Southeast 476 548 37,000  Level FlightAware
04:58AM 41.1900 -109.2230 130° Southeast 475 547 37,000  Level FlightAware
04:59AM 41.1290 -109.1250 130° Southeast 472 543 37,000  Level FlightAware
05:00AM 41.0750 -109.0390 130° Southeast 472 543 37,000  Level FlightAware
05:01AM 41.0130 -108.9420 130° Southeast 472 543 37,000  Level FlightAware
05:01AM 40.9550 -108.8500 130° Southeast 471 542 37,000  Level FlightAware
05:02AM 40.8920 -108.7520 130° Southeast 471 542 37,000  Level FlightAware
05:03AM 40.8370 -108.6660 130° Southeast 471 542 37,000  Level FlightAware
05:03AM 40.7760 -108.5700 130° Southeast 472 543 37,000  Level FlightAware
05:04AM 40.7220 -108.4860 130° Southeast 473 544 37,000  Level FlightAware
05:05AM 40.6570 -108.3840 130° Southeast 471 542 37,000  Level FlightAware
05:05AM 40.6010 -108.2980 131° Southeast 471 542 37,000  Level FlightAware
05:06AM 40.5450 -108.2110 130° Southeast 470 541 37,000  Level FlightAware
05:07AM 40.4820 -108.1140 130° Southeast 469 540 37,000  Level FlightAware
05:08AM 40.4230 -108.0250 131° Southeast 469 540 37,000  Level FlightAware
05:08AM 40.3780 -107.9550 130° Southeast 470 541 37,000  Level FlightAware
05:09AM 40.3100 -107.8510 131° Southeast 471 542 37,000  Level FlightAware
05:10AM 40.2530 -107.7650 131° Southeast 470 541 37,000  Level FlightAware
05:10AM 40.2050 -107.6920 131° Southeast 471 542 37,000  Level FlightAware
05:11AM 40.1553 -107.6170 131° Southeast 472 543 37,000  Level FlightAware ADS-B
05:11AM 40.1119 -107.5510 131° Southeast 473 544 37,000  Level FlightAware ADS-B
05:12AM 40.0660 -107.4820 131° Southeast 472 543 37,000  Level FlightAware
05:13AM 40.0050 -107.3900 131° Southeast 472 543 37,000  Level FlightAware
05:13AM 39.9807 -107.3540 131° Southeast 472 543 37,000  Level FlightAware ADS-B
05:13AM 39.9373 -107.2890 131° Southeast 471 542 37,000  Level FlightAware ADS-B
05:14AM 39.8940 -107.2240 131° Southeast 469 540 37,000  Level FlightAware ADS-B
05:14AM 39.8511 -107.1600 131° Southeast 469 540 37,000  Level FlightAware ADS-B
05:15AM 39.8082 -107.0960 131° Southeast 470 541 37,000  Level FlightAware ADS-B
05:15AM 39.7652 -107.0320 131° Southeast 470 541 37,000  Level FlightAware ADS-B
05:16AM 39.7220 -106.9680 131° Southeast 471 542 37,000  Level FlightAware ADS-B
05:16AM 39.6784 -106.9040 132° Southeast 473 544 37,000  Level FlightAware ADS-B
05:17AM 39.6349 -106.8400 131° Southeast 473 544 37,000  Level FlightAware ADS-B
05:17AM 39.5910 -106.7760 132° Southeast 475 547 37,000  Level FlightAware ADS-B
05:18AM 39.5475 -106.7120 131° Southeast 475 547 37,000  Level FlightAware ADS-B
05:18AM 39.5037 -106.6470 131° Southeast 475 547 37,000  Level FlightAware ADS-B
05:19AM 39.4599 -106.5830 132° Southeast 475 547 37,000  Level FlightAware ADS-B
05:19AM 39.4162 -106.5190 131° Southeast 473 544 37,000  Level FlightAware ADS-B
05:20AM 39.3725 -106.4550 131° Southeast 473 544 37,000  Level FlightAware ADS-B
05:20AM 39.3286 -106.3920 132° Southeast 473 544 37,000  Level FlightAware ADS-B
05:21AM 39.2851 -106.3280 131° Southeast 472 543 37,000  Level FlightAware ADS-B
05:21AM 39.2411 -106.2650 132° Southeast 472 543 37,000  Level FlightAware ADS-B
05:22AM 39.1971 -106.2010 132° Southeast 472 543 37,000  Level FlightAware ADS-B
05:22AM 39.1532 -106.1380 132° Southeast 472 543 37,000  Level FlightAware ADS-B
05:23AM 39.1090 -106.0740 132° Southeast 478 550 37,000  Level FlightAware ADS-B
05:23AM 39.0609 -106.0050 132° Southeast 488 562 37,000  Level FlightAware ADS-B
05:24AM 39.0135 -105.9370 132° Southeast 493 567 37,000  Level FlightAware ADS-B
05:24AM 38.9673 -105.8710 132° Southeast 496 571 37,000  Level FlightAware ADS-B
05:25AM 38.9205 -105.8040 132° Southeast 499 574 37,000  Level FlightAware ADS-B
05:25AM 38.8736 -105.7370 132° Southeast 501 577 37,000  Level FlightAware ADS-B
05:26AM 38.8260 -105.6700 132° Southeast 502 578 37,000  Level FlightAware ADS-B
05:26AM 38.7789 -105.6030 132° Southeast 503 579 37,000  Level FlightAware ADS-B
05:27AM 38.7315 -105.5360 132° Southeast 504 580 37,000  Level FlightAware ADS-B
05:27AM 38.6841 -105.4690 132° Southeast 505 581 37,000  Level FlightAware ADS-B
05:28AM 38.6366 -105.4020 132° Southeast 506 582 37,000  Level FlightAware ADS-B
05:28AM 38.5891 -105.3350 132° Southeast 507 583 37,000  Level FlightAware ADS-B
05:29AM 38.5416 -105.2680 132° Southeast 506 582 37,000  Level FlightAware ADS-B
05:29AM 38.4937 -105.2010 132° Southeast 506 582 37,000  Level FlightAware ADS-B
05:30AM 38.4466 -105.1350 132° Southeast 505 581 37,000  Level FlightAware ADS-B
05:30AM 38.3981 -105.0680 133° Southeast 505 581 37,000  Level FlightAware ADS-B
05:31AM 38.3502 -105.0010 132° Southeast 504 580 37,000  Level FlightAware ADS-B
05:31AM 38.3027 -104.9350 133° Southeast 504 580 37,000  Level FlightAware ADS-B
05:32AM 38.2550 -104.8690 133° Southeast 503 579 37,000  Level FlightAware ADS-B
05:33AM 38.2074 -104.8040 133° Southeast 502 578 37,000  Level FlightAware ADS-B
05:33AM 38.1279 -104.6940 133° Southeast 502 578 37,000  Level FlightAware ADS-B
05:34AM 38.0805 -104.6290 133° Southeast 502 578 37,000  Level FlightAware ADS-B
05:34AM 38.0315 -104.5620 133° Southeast 501 577 37,000  Level FlightAware ADS-B
05:35AM 37.9790 -104.4900 133° Southeast 501 577 37,000  Level FlightAware ADS-B
05:35AM 37.9268 -104.4180 133° Southeast 501 577 37,000  Level FlightAware ADS-B
05:36AM 37.8623 -104.3300 133° Southeast 500 575 37,000  Level FlightAware ADS-B
05:37AM 37.8084 -104.2570 133° Southeast 500 575 37,000  Level FlightAware ADS-B
05:37AM 37.7584 -104.1890 133° Southeast 499 574 37,000  Level FlightAware ADS-B
05:38AM 37.7111 -104.1250 133° Southeast 497 572 37,000  Level FlightAware ADS-B
05:38AM 37.6637 -104.0620 134° Southeast 496 571 37,000  Level FlightAware ADS-B
05:39AM 37.6148 -103.9950 133° Southeast 495 570 37,000  Level FlightAware ADS-B
05:39AM 37.5639 -103.9270 133° Southeast 493 567 37,000  Level FlightAware ADS-B
05:41AM 37.3934 -103.6980 133° Southeast 494 568 37,000  Level FlightAware ADS-B
05:42AM 37.3425 -103.6310 134° Southeast 494 568 37,000  Level FlightAware ADS-B
05:43AM 37.2700 -103.5350 134° Southeast 491 565 37,000  Level Albuquerque Center
05:44AM 37.1800 -103.4147 133° Southeast 493 567 37,000  Level Albuquerque Center
05:45AM 37.0886 -103.2958 134° Southeast 493 567 37,000  Level Albuquerque Center
05:46AM 36.9981 -103.1756 133° Southeast 494 568 37,000  Level Albuquerque Center
05:47AM 36.8922 -103.0372 134° Southeast 493 567 37,000  Level Albuquerque Center
05:48AM 36.8008 -102.9192 134° Southeast 492 566 37,000  Level Albuquerque Center
05:49AM 36.7103 -102.8000 133° Southeast 494 568 37,000  Level Albuquerque Center
05:50AM 36.6042 -102.6628 134° Southeast 494 568 37,000  Level Albuquerque Center
05:51AM 36.5089 -102.5392 134° Southeast 493 567 37,000  Level Albuquerque Center
05:52AM 36.4125 -102.4158 134° Southeast 498 573 37,000  Level Albuquerque Center
05:53AM 36.3169 -102.2925 134° Southeast 496 571 37,000  Level Albuquerque Center
05:54AM 36.2197 -102.1708 135° Southeast 497 572 37,000  Level Albuquerque Center
05:55AM 36.1236 -102.0481 134° Southeast 496 571 37,000  Level Albuquerque Center
05:56AM 36.0253 -101.9231 134° Southeast 502 578 37,000  Level Albuquerque Center
05:57AM 35.9269 -101.7992 134° Southeast 504 580 37,000  Level Albuquerque Center
05:58AM 35.8297 -101.6758 134° Southeast 501 577 37,000  Level Albuquerque Center
05:59AM 35.7319 -101.5531 134° Southeast 499 574 37,000  Level Albuquerque Center
06:00AM 35.6336 -101.4311 135° Southeast 499 574 37,000  Level Albuquerque Center
06:01AM 35.5547 -101.3319 134° Southeast 500 575 37,000  Level Albuquerque Center
06:02AM 35.4550 -101.2078 135° Southeast 502 578 37,000  Level Albuquerque Center
06:03AM 35.3542 -101.0842 135° Southeast 506 582 37,000  Level Albuquerque Center
06:04AM 35.2531 -100.9608 135° Southeast 510 587 37,000  Level Albuquerque Center
06:05AM 35.1522 -100.8386 135° Southeast 509 586 37,000  Level Albuquerque Center
06:10AM 34.6010 -100.1600 135° Southeast 499 574 37,000  Level FlightAware
06:10AM 34.5580 -100.1070 135° Southeast 499 574 37,000  Level FlightAware
06:11AM 34.4770 -100.0060 134° Southeast 497 572 37,000  Level FlightAware
06:12AM 34.4280 -99.9450 134° Southeast 497 572 37,000  Level FlightAware
06:13AM 34.3250 -99.8180 134° Southeast 496 571 37,000  Level FlightAware
06:14AM 34.2760 -99.7570 134° Southeast 496 571 37,000  Level FlightAware
06:14AM 34.1950 -99.6580 135° Southeast 494 568 37,000  Level FlightAware
06:17AM 34.0890 -99.5270 134° Southeast 492 566 37,000  Level FlightAware
06:17AM 34.0410 -99.4670 134° Southeast 492 566 37,000  Level FlightAware
06:18AM 33.8330 -99.2160 135° Southeast 494 568 37,000  Level FlightAware
06:19AM 33.7790 -99.1510 135° Southeast 498 573 37,000  Level FlightAware
06:19AM 33.7090 -99.0660 135° Southeast 500 575 37,000  Level FlightAware
06:20AM 33.6380 -98.9770 134° Southeast 500 575 37,000  Level FlightAware
06:21AM 33.5880 -98.9140 134° Southeast 500 575 37,000  Level FlightAware
06:22AM 33.4810 -98.7910 136° Southeast 503 579 37,000  Level FlightAware
06:22AM 33.4140 -98.7110 135° Southeast 504 580 37,000  Level FlightAware
06:23AM 33.3320 -98.6130 135° Southeast 505 581 37,000  Level FlightAware
06:24AM 33.2610 -98.5270 135° Southeast 506 582 37,000  Level FlightAware
06:25AM 33.1810 -98.4330 135° Southeast 504 580 37,000  Level FlightAware
06:25AM 33.1120 -98.3510 135° Southeast 503 579 37,000  Level FlightAware
06:26AM 33.0400 -98.2660 135° Southeast 502 578 37,000  Level FlightAware
06:27AM 32.9710 -98.1840 135° Southeast 502 578 37,000  Level FlightAware
06:27AM 32.9100 -98.1130 136° Southeast 502 578 37,000  Level FlightAware
06:28AM 32.8290 -98.0170 135° Southeast 503 579 37,000  Level FlightAware
06:28AM 32.8134 -97.9993 136° Southeast 503 579 37,000  Level FlightAware ADS-B
06:29AM 32.7610 -97.9380 135° Southeast 504 580 37,000  Level FlightAware
06:29AM 32.7010 -97.8690 136° Southeast 503 579 37,000  Level FlightAware
06:30AM 32.6430 -97.8000 135° Southeast 505 581 37,000  Level FlightAware
06:31AM 32.5690 -97.7130 135° Southeast 508 585 37,000  Level FlightAware
06:32AM 32.4910 -97.6240 136° Southeast 511 588 37,000  Level FlightAware
06:32AM 32.4220 -97.5430 135° Southeast 511 588 37,000  Level FlightAware
06:33AM 32.3410 -97.4501 136° Southeast 505 581 37,000  Level FlightAware ADS-B
06:34AM 32.2782 -97.3776 136° Southeast 501 577 37,000  Level FlightAware ADS-B
06:34AM 32.2279 -97.3195 136° Southeast 499 574 37,000  Level FlightAware ADS-B
06:35AM 32.1737 -97.2571 136° Southeast 499 574 37,000  Level FlightAware ADS-B
06:35AM 32.1257 -97.2048 137° Southeast 503 579 37,000  Level FlightAware ADS-B
06:36AM 32.0652 -97.1504 143° Southeast 505 581 37,000  Level FlightAware ADS-B
06:37AM 31.9528 -97.0504 143° Southeast 507 583 37,000  Level FlightAware ADS-B
06:37AM 31.8952 -96.9994 143° Southeast 508 585 37,000  Level FlightAware ADS-B
06:39AM 31.7156 -96.8396 143° Southeast 510 587 37,000 -180 Level FlightAware ADS-B
06:40AM 31.5992 -96.7366 143° Southeast 512 589 36,600 -600 Descending FlightAware ADS-B
06:40AM 31.5420 -96.6860 143° Southeast 515 593 36,100 -1,080 Descending FlightAware ADS-B
06:41AM 31.4774 -96.6289 143° Southeast 518 596 35,500 -1,620 Descending FlightAware ADS-B
06:41AM 31.4396 -96.5961 143° Southeast 517 595 34,700 -2,880 Descending FlightAware ADS-B
06:43AM 31.2752 -96.4876 151° Southeast 511 588 30,800 -2,880 Descending FlightAware ADS-B
06:44AM 31.1518 -96.4095 152° Southeast 489 563 28,100 -2,640 Descending FlightAware ADS-B
06:44AM 31.0910 -96.3713 152° Southeast 480 552 26,800 -2,580 Descending FlightAware ADS-B
06:45AM 31.0333 -96.3348 152° Southeast 470 541 25,500 -2,520 Descending FlightAware ADS-B
06:45AM 30.9761 -96.2987 152° Southeast 459 528 24,300 -2,460 Descending FlightAware ADS-B
06:46AM 30.8649 -96.2281 151° Southeast 439 505 21,800 -2,340 Descending FlightAware ADS-B
06:47AM 30.7562 -96.1595 152° Southeast 420 483 19,500 -2,280 Descending FlightAware ADS-B
06:48AM 30.6545 -96.0957 152° Southeast 400 460 17,200 -2,280 Descending FlightAware ADS-B
06:50AM 30.5118 -96.0063 152° Southeast 375 432 13,800 -2,280 Descending FlightAware ADS-B
06:50AM 30.4661 -95.9777 152° Southeast 366 421 12,700 -2,100 Descending FlightAware ADS-B
06:51AM 30.3766 -95.9216 152° Southeast 352 405 10,600 -1,380 Descending FlightAware ADS-B
06:52AM 30.2968 -95.8720 152° Southeast 300 345 10,000 -1,020 Descending FlightAware ADS-B
06:53AM 30.2246 -95.8270 152° Southeast 289 333 8,600 -1,440 Descending FlightAware ADS-B
06:54AM 30.1888 -95.8050 152° Southeast 287 330 7,900 -1,620 Descending FlightAware ADS-B
06:54AM 30.1533 -95.7828 152° Southeast 285 328 7,000 -1,860 Descending FlightAware ADS-B
06:55AM 30.1322 -95.7691 148° Southeast 282 325 6,400 -2,040 Descending FlightAware ADS-B
06:55AM 30.1288 -95.7664 146° Southeast 282 325 6,300 -1,440 Descending FlightAware ADS-B
06:55AM 30.0978 -95.7389 142° Southeast 277 319 5,600 -1,440 Descending FlightAware ADS-B
06:55AM 30.0824 -95.7250 142° Southeast 275 316 5,200 -1,440 Descending FlightAware ADS-B
06:56AM 30.0674 -95.7113 142° Southeast 273 314 4,900 -1,200 Descending FlightAware ADS-B
06:56AM 30.0522 -95.6974 142° Southeast 270 311 4,600 -1,380 Descending FlightAware ADS-B
06:56AM 30.0374 -95.6837 141° Southeast 269 310 4,200 -900 Descending FlightAware ADS-B
06:56AM 30.0178 -95.6657 142° Southeast 256 295 4,100 -360 Descending FlightAware ADS-B
06:57AM 30.0035 -95.6525 141° Southeast 245 282 4,000 -240 Descending FlightAware ADS-B
06:57AM 29.9904 -95.6403 141° Southeast 233 268 4,000  Level FlightAware ADS-B
06:57AM 29.9846 -95.6346 140° Southeast 229 264 4,000  Level FlightAware ADS-B
06:57AM 29.9820 -95.6310 130° Southeast 229 264 4,000  Level FlightAware ADS-B
06:57AM 29.9784 -95.6227 111° Southeast 231 266 4,000  Level FlightAware ADS-B
06:57AM 29.9777 -95.6191 103° East 231 266 4,000  Level FlightAware ADS-B
06:57AM 29.9774 -95.6151 95° East 232 267 4,000  Level FlightAware ADS-B
06:57AM 29.9775 -95.6113 88° East 233 268 4,000  Level FlightAware ADS-B
06:58AM 29.9790 -95.6029 78° East 235 270 4,000 -900 Level FlightAware ADS-B
06:58AM 29.9887 -95.5612 75° East 229 264 3,400 -1,080 Descending FlightAware ADS-B
06:58AM 29.9919 -95.5471 75° East 223 257 3,200 -1,140 Descending FlightAware ADS-B
06:58AM 29.9925 -95.5426 81° East 219 252 3,100 -1,500 Descending FlightAware ADS-B
06:58AM 29.9929 -95.5389 83° East 217 250 3,000 -900 Descending FlightAware ADS-B
06:59AM 29.9930 -95.5268 89° East 211 243 2,900 -900 Descending FlightAware ADS-B
06:59AM 29.9930 -95.5151 90° East 207 238 2,700 -1,200 Descending FlightAware ADS-B
06:59AM 29.9932 -95.4984 89° East 203 234 2,400 -1,080 Descending FlightAware ADS-B
06:59AM 29.9932 -95.4850 90° East 200 230 2,200 -960 Descending FlightAware ADS-B
07:00AM 29.9933 -95.4527 90° East 177 204 1,700 -900 Descending FlightAware ADS-B
07:00AM 29.9933 -95.4391 90° East 169 194 1,500 -840 Descending FlightAware ADS-B
07:00AM 29.9933 -95.4325 90° East 159 183 1,400 -960 Descending FlightAware ADS-B
07:00AM 29.9933 -95.4182 90° East 153 176 1,100 -900 Descending FlightAware ADS-B
07:01AM 29.9933 -95.4097 90° East 153 176 1,000 -960 Descending FlightAware ADS-B
07:01AM 29.9932 -95.4025 91° East 153 176 800 -1,380 Descending FlightAware ADS-B